sensor_id;sensor_type;location;lat;lon;timestamp;P1;durP1;ratioP1;P2;durP2;ratioP2
61739;SDS011;47645;45.288;12.038;2022-09-02T00:00:49;4.2;;;2.0;;
61739;SDS011;47645;45.288;12.038;2022-09-02T00:10:49;6.2;;;2.2;;
61739;SDS011;47645;45.288;12.038;2022-09-02T00:20:50;5.5;;;2.4;;
61739;SDS011;47645;45.288;12.038;2022-09-02T00:30:52;5.3;;;2.2;;
61739;SDS011;47645;45.288;12.038;2022-09-02T00:40:53;3.5;;;2.2;;
61739;SDS011;47645;45.288;12.038;2022-09-02T00:50:54;5.9;;;2.2;;
61739;SDS011;47645;45.288;12.038;2022-09-02T01:00:56;4.4;;;2.2;;
61739;SDS011;47645;45.288;12.038;2022-09-02T01:10:57;5.5;;;2.5;;
61739;SDS011;47645;45.288;12.038;2022-09-02T01:20:59;4.9;;;2.2;;
61739;SDS011;47645;45.288;12.038;2022-09-02T01:30:59;3.1;;;2.1;;
61739;SDS011;47645;45.288;12.038;2022-09-02T01:41:01;3.6;;;2.0;;
61739;SDS011;47645;45.288;12.038;2022-09-02T01:51:02;3.5;;;1.8;;
61739;SDS011;47645;45.288;12.038;2022-09-02T02:01:03;4.7;;;2.0;;
61739;SDS011;47645;45.288;12.038;2022-09-02T02:11:04;4.3;;;2.1;;
61739;SDS011;47645;45.288;12.038;2022-09-02T02:21:05;2.6;;;1.8;;
61739;SDS011;47645;45.288;12.038;2022-09-02T02:31:06;4.6;;;1.9;;
61739;SDS011;47645;45.288;12.038;2022-09-02T02:41:08;3.6;;;1.9;;
61739;SDS011;47645;45.288;12.038;2022-09-02T02:51:09;4.2;;;2.1;;
61739;SDS011;47645;45.288;12.038;2022-09-02T03:01:09;5.2;;;2.1;;
61739;SDS011;47645;45.288;12.038;2022-09-02T03:11:11;2.7;;;1.8;;
61739;SDS011;47645;45.288;12.038;2022-09-02T03:21:13;4.8;;;2.3;;
61739;SDS011;47645;45.288;12.038;2022-09-02T03:31:14;4.1;;;2.1;;
61739;SDS011;47645;45.288;12.038;2022-09-02T03:41:14;4.1;;;2.2;;
61739;SDS011;47645;45.288;12.038;2022-09-02T03:51:15;5.3;;;2.1;;
61739;SDS011;47645;45.288;12.038;2022-09-02T04:01:18;3.3;;;2.2;;
61739;SDS011;47645;45.288;12.038;2022-09-02T04:11:19;5.2;;;2.3;;
61739;SDS011;47645;45.288;12.038;2022-09-02T04:21:19;5.3;;;2.7;;
61739;SDS011;47645;45.288;12.038;2022-09-02T04:31:20;4.1;;;2.7;;
61739;SDS011;47645;45.288;12.038;2022-09-02T04:41:23;5.3;;;2.5;;
61739;SDS011;47645;45.288;12.038;2022-09-02T04:51:23;4.0;;;2.4;;
61739;SDS011;47645;45.288;12.038;2022-09-02T05:01:24;2.7;;;2.4;;
61739;SDS011;47645;45.288;12.038;2022-09-02T05:11:28;4.7;;;2.5;;
61739;SDS011;47645;45.288;12.038;2022-09-02T05:21:25;4.7;;;2.5;;
61739;SDS011;47645;45.288;12.038;2022-09-02T05:31:28;3.5;;;2.3;;
61739;SDS011;47645;45.288;12.038;2022-09-02T05:41:27;4.6;;;2.7;;
61739;SDS011;47645;45.288;12.038;2022-09-02T05:51:29;6.6;;;3.1;;
61739;SDS011;47645;45.288;12.038;2022-09-02T06:01:29;6.6;;;2.7;;
61739;SDS011;47645;45.288;12.038;2022-09-02T06:11:30;4.8;;;2.8;;
61739;SDS011;47645;45.288;12.038;2022-09-02T06:21:31;7.6;;;3.1;;
61739;SDS011;47645;45.288;12.038;2022-09-02T06:31:32;6.3;;;2.3;;
61739;SDS011;47645;45.288;12.038;2022-09-02T06:41:33;6.9;;;2.3;;
61739;SDS011;47645;45.288;12.038;2022-09-02T06:51:35;6.5;;;2.1;;
61739;SDS011;47645;45.288;12.038;2022-09-02T07:01:36;5.3;;;2.0;;
61739;SDS011;47645;45.288;12.038;2022-09-02T07:11:37;5.0;;;1.5;;
61739;SDS011;47645;45.288;12.038;2022-09-02T07:21:40;4.8;;;2.0;;
61739;SDS011;47645;45.288;12.038;2022-09-02T07:31:39;4.9;;;1.9;;
61739;SDS011;47645;45.288;12.038;2022-09-02T07:41:40;4.9;;;1.6;;
61739;SDS011;47645;45.288;12.038;2022-09-02T07:51:42;6.6;;;1.6;;
61739;SDS011;47645;45.288;12.038;2022-09-02T08:01:42;2.7;;;1.1;;
61739;SDS011;47645;45.288;12.038;2022-09-02T08:11:45;7.2;;;1.6;;
61739;SDS011;47645;45.288;12.038;2022-09-02T08:21:44;3.9;;;1.6;;
61739;SDS011;47645;45.288;12.038;2022-09-02T08:31:46;2.8;;;1.1;;
61739;SDS011;47645;45.288;12.038;2022-09-02T08:41:49;3.7;;;1.8;;
61739;SDS011;47645;45.288;12.038;2022-09-02T08:51:49;3.1;;;1.0;;
61739;SDS011;47645;45.288;12.038;2022-09-02T09:01:50;2.7;;;1.0;;
61739;SDS011;47645;45.288;12.038;2022-09-02T09:11:53;3.4;;;0.9;;
61739;SDS011;47645;45.288;12.038;2022-09-02T09:21:52;3.5;;;1.0;;
61739;SDS011;47645;45.288;12.038;2022-09-02T09:31:55;2.1;;;0.9;;
61739;SDS011;47645;45.288;12.038;2022-09-02T09:42:02;2.2;;;0.9;;
61739;SDS011;47645;45.288;12.038;2022-09-02T09:51:57;2.3;;;0.8;;
61739;SDS011;47645;45.288;12.038;2022-09-02T10:01:58;2.8;;;1.1;;
61739;SDS011;47645;45.288;12.038;2022-09-02T10:12:01;2.7;;;1.1;;
61739;SDS011;47645;45.288;12.038;2022-09-02T10:22:07;2.4;;;0.8;;
61739;SDS011;47645;45.288;12.038;2022-09-02T10:32:08;2.3;;;0.8;;
61739;SDS011;47645;45.288;12.038;2022-09-02T10:42:11;1.5;;;0.7;;
61739;SDS011;47645;45.288;12.038;2022-09-02T10:52:07;2.8;;;1.1;;
61739;SDS011;47645;45.288;12.038;2022-09-02T11:02:09;2.3;;;0.9;;
61739;SDS011;47645;45.288;12.038;2022-09-02T11:12:10;4.0;;;1.2;;
61739;SDS011;47645;45.288;12.038;2022-09-02T11:22:13;3.6;;;1.2;;
61739;SDS011;47645;45.288;12.038;2022-09-02T11:32:16;1.9;;;0.9;;
61739;SDS011;47645;45.288;12.038;2022-09-02T11:42:16;4.0;;;1.0;;
61739;SDS011;47645;45.288;12.038;2022-09-02T11:52:19;4.3;;;1.2;;
61739;SDS011;47645;45.288;12.038;2022-09-02T12:02:29;4.3;;;1.1;;
61739;SDS011;47645;45.288;12.038;2022-09-02T12:22:25;3.4;;;1.1;;
61739;SDS011;47645;45.288;12.038;2022-09-02T12:33:29;3.3;;;1.0;;
61739;SDS011;47645;45.288;12.038;2022-09-02T12:42:25;2.1;;;0.9;;
61739;SDS011;47645;45.288;12.038;2022-09-02T12:52:42;2.3;;;0.8;;
61739;SDS011;47645;45.288;12.038;2022-09-02T13:02:31;2.6;;;0.8;;
61739;SDS011;47645;45.288;12.038;2022-09-02T13:12:33;4.3;;;0.9;;
61739;SDS011;47645;45.288;12.038;2022-09-02T13:22:36;4.0;;;0.9;;
61739;SDS011;47645;45.288;12.038;2022-09-02T13:32:33;3.1;;;0.9;;
61739;SDS011;47645;45.288;12.038;2022-09-02T13:42:35;1.7;;;1.0;;
61739;SDS011;47645;45.288;12.038;2022-09-02T13:52:36;11.0;;;2.2;;
61739;SDS011;47645;45.288;12.038;2022-09-02T14:02:38;3.5;;;1.0;;
61739;SDS011;47645;45.288;12.038;2022-09-02T14:12:40;3.5;;;1.1;;
61739;SDS011;47645;45.288;12.038;2022-09-02T14:22:42;5.6;;;1.1;;
61739;SDS011;47645;45.288;12.038;2022-09-02T14:32:43;3.8;;;0.9;;
61739;SDS011;47645;45.288;12.038;2022-09-02T14:42:46;4.8;;;1.0;;
61739;SDS011;47645;45.288;12.038;2022-09-02T14:52:47;3.2;;;1.0;;
61739;SDS011;47645;45.288;12.038;2022-09-02T15:02:52;2.3;;;1.1;;
61739;SDS011;47645;45.288;12.038;2022-09-02T15:12:51;7.2;;;1.9;;
61739;SDS011;47645;45.288;12.038;2022-09-02T15:22:52;5.9;;;1.3;;
61739;SDS011;47645;45.288;12.038;2022-09-02T15:32:53;3.1;;;1.2;;
61739;SDS011;47645;45.288;12.038;2022-09-02T15:42:57;1.6;;;0.8;;
61739;SDS011;47645;45.288;12.038;2022-09-02T15:52:57;3.2;;;1.2;;
61739;SDS011;47645;45.288;12.038;2022-09-02T16:02:59;3.8;;;1.1;;
61739;SDS011;47645;45.288;12.038;2022-09-02T16:13:01;8.5;;;2.0;;
61739;SDS011;47645;45.288;12.038;2022-09-02T16:23:02;7.9;;;2.4;;
61739;SDS011;47645;45.288;12.038;2022-09-02T16:33:03;2.4;;;1.2;;
61739;SDS011;47645;45.288;12.038;2022-09-02T16:43:06;3.0;;;1.1;;
61739;SDS011;47645;45.288;12.038;2022-09-02T16:53:07;2.7;;;0.9;;
61739;SDS011;47645;45.288;12.038;2022-09-02T17:03:09;4.1;;;1.3;;
61739;SDS011;47645;45.288;12.038;2022-09-02T17:13:10;2.6;;;1.0;;
61739;SDS011;47645;45.288;12.038;2022-09-02T17:23:13;4.6;;;1.2;;
61739;SDS011;47645;45.288;12.038;2022-09-02T17:33:12;4.8;;;1.5;;
61739;SDS011;47645;45.288;12.038;2022-09-02T17:43:15;7.9;;;1.6;;
61739;SDS011;47645;45.288;12.038;2022-09-02T17:53:18;4.4;;;1.5;;
61739;SDS011;47645;45.288;12.038;2022-09-02T18:03:23;3.1;;;1.6;;
61739;SDS011;47645;45.288;12.038;2022-09-02T18:13:20;2.8;;;1.1;;
61739;SDS011;47645;45.288;12.038;2022-09-02T18:23:23;4.1;;;1.6;;
61739;SDS011;47645;45.288;12.038;2022-09-02T18:33:26;2.0;;;1.3;;
61739;SDS011;47645;45.288;12.038;2022-09-02T18:43:25;3.6;;;2.0;;
61739;SDS011;47645;45.288;12.038;2022-09-02T18:53:27;4.8;;;1.9;;
61739;SDS011;47645;45.288;12.038;2022-09-02T19:03:29;7.2;;;3.1;;
61739;SDS011;47645;45.288;12.038;2022-09-02T19:13:28;7.7;;;2.5;;
61739;SDS011;47645;45.288;12.038;2022-09-02T19:23:29;5.4;;;2.2;;
61739;SDS011;47645;45.288;12.038;2022-09-02T19:33:31;6.6;;;1.8;;
61739;SDS011;47645;45.288;12.038;2022-09-02T19:43:32;4.1;;;2.1;;
61739;SDS011;47645;45.288;12.038;2022-09-02T19:53:31;6.4;;;2.0;;
61739;SDS011;47645;45.288;12.038;2022-09-02T20:03:33;4.3;;;1.9;;
61739;SDS011;47645;45.288;12.038;2022-09-02T20:13:35;4.2;;;2.0;;
61739;SDS011;47645;45.288;12.038;2022-09-02T20:23:35;3.3;;;1.9;;
61739;SDS011;47645;45.288;12.038;2022-09-02T20:33:38;3.7;;;1.9;;
61739;SDS011;47645;45.288;12.038;2022-09-02T20:43:43;5.2;;;1.9;;
61739;SDS011;47645;45.288;12.038;2022-09-02T20:53:46;5.0;;;2.5;;
61739;SDS011;47645;45.288;12.038;2022-09-02T21:03:44;3.6;;;1.6;;
61739;SDS011;47645;45.288;12.038;2022-09-02T21:13:44;3.0;;;1.7;;
61739;SDS011;47645;45.288;12.038;2022-09-02T21:23:43;3.6;;;2.1;;
61739;SDS011;47645;45.288;12.038;2022-09-02T21:33:44;3.4;;;2.0;;
61739;SDS011;47645;45.288;12.038;2022-09-02T21:43:49;3.1;;;1.7;;
61739;SDS011;47645;45.288;12.038;2022-09-02T21:53:49;2.8;;;2.0;;
61739;SDS011;47645;45.288;12.038;2022-09-02T22:03:48;7.0;;;2.7;;
61739;SDS011;47645;45.288;12.038;2022-09-02T22:13:49;3.4;;;2.1;;
61739;SDS011;47645;45.288;12.038;2022-09-02T22:23:52;5.4;;;2.9;;
61739;SDS011;47645;45.288;12.038;2022-09-02T22:33:55;5.6;;;3.1;;
61739;SDS011;47645;45.288;12.038;2022-09-02T22:43:54;3.4;;;1.9;;
61739;SDS011;47645;45.288;12.038;2022-09-02T22:53:54;3.9;;;1.9;;
61739;SDS011;47645;45.288;12.038;2022-09-02T23:03:59;4.6;;;2.4;;
61739;SDS011;47645;45.288;12.038;2022-09-02T23:14:00;5.9;;;3.8;;
61739;SDS011;47645;45.288;12.038;2022-09-02T23:24:02;7.7;;;3.2;;
61739;SDS011;47645;45.288;12.038;2022-09-02T23:34:02;6.1;;;3.2;;
61739;SDS011;47645;45.288;12.038;2022-09-02T23:44:01;3.5;;;2.5;;
61739;SDS011;47645;45.288;12.038;2022-09-02T23:54:05;3.0;;;1.8;;
